Missouri River (Missouri), Saint Charles (06935965)

StateMissouriLatestUnknown (43600 cfs)
RiverMissouri RiverRatingObservedEstimated
Updated2022-09-25 21:30 (24 minutes ago)Flood - The river is flooding. Obstacles can be treacherous or deadly. The river should be avoided at this stage for casual trips and definitely for the inexperienced. Trips should be attempted only with protective gear and equipment.Flood(none)(none)
Discharge43600 cfs (median: 63500 cfs)High - The river is high and potentially dangerous, especially for the young and / or inexperienced. Normal stream obstacles are sometimes difficult to navigate. Extended distances can be attempted, but canoe travel may not be advisable.High(none)(none)
Height8.46 feetGood - Conditions are ideal for a canoe or kayak. Boats typically will drag on fewer than one-quarter of riffles, if at all, and portages are unnecessary or rare. Normal float lengths can be attempted without a problem.Good(none)(none)
TrendFalling (rising over 24 hours)Low - River is low but can still be floated. Some riffles are okay but most come with significant dragging and might need a portage. Float lengths should be reduced to accommodate low flow, dragging, and portages.Low(none)(none)
USGSExternal icon USGS Site (External icon Duck Duck Go Maps)Poor - River is too low to float comfortably. Most or all riffles will drag or must be portaged and some obstacles (such as slick shelf rock) cause undue problems. Avoid the river at this stage for casual paddling trips.Poor(none)(none)

Trending Data

Plot Image

Trips for Missouri River (Missouri), Saint Charles (06935965)

DateStartEndDistanceConditionDischargeHeightFishingDetails

A total of 0 rows are displayed.

Condition Descriptions

Fishing Conditions

Fish Species

Notes

Classic Trip List

The classic River Trips application is still available for use. It is updated with the new system using a data retrofit. It is no longer maintained. The original River Trips application is no longer updated (as of 1 Dec 2016) but can be checked for errors or for the condition of the data before it was converted to the new system.

Gauge Data Table

ObservationHeightDischargeMaximum
Discharge
Minimum
Discharge
Mean
Discharge
P05P10P20P25P50
(Median)
P75P80P90P95
2022-09-25 21:30 8.46 43600 245000 (2010) 41700 (2002) 83300 42400 46200 48100 50400 63500 112000 117000 177000 238000
2022-09-25 21:00 8.47 43700 245000 (2010) 41700 (2002) 83300 42400 46200 48100 50400 63500 112000 117000 177000 238000
2022-09-25 20:30 8.49 43800 245000 (2010) 41700 (2002) 83300 42400 46200 48100 50400 63500 112000 117000 177000 238000
2022-09-25 20:00 8.48 43700 245000 (2010) 41700 (2002) 83300 42400 46200 48100 50400 63500 112000 117000 177000 238000
2022-09-25 19:30 8.46 43600 245000 (2010) 41700 (2002) 83300 42400 46200 48100 50400 63500 112000 117000 177000 238000
2022-09-25 19:00 8.48 43700 245000 (2010) 41700 (2002) 83300 42400 46200 48100 50400 63500 112000 117000 177000 238000
2022-09-25 18:30 8.47 43700 245000 (2010) 41700 (2002) 83300 42400 46200 48100 50400 63500 112000 117000 177000 238000
2022-09-25 18:00 8.46 43600 245000 (2010) 41700 (2002) 83300 42400 46200 48100 50400 63500 112000 117000 177000 238000
2022-09-25 17:30 8.47 43700 245000 (2010) 41700 (2002) 83300 42400 46200 48100 50400 63500 112000 117000 177000 238000
2022-09-25 17:00 8.47 43700 245000 (2010) 41700 (2002) 83300 42400 46200 48100 50400 63500 112000 117000 177000 238000
2022-09-25 16:30 8.47 43700 245000 (2010) 41700 (2002) 83300 42400 46200 48100 50400 63500 112000 117000 177000 238000
2022-09-25 16:00 8.47 43700 245000 (2010) 41700 (2002) 83300 42400 46200 48100 50400 63500 112000 117000 177000 238000
2022-09-25 15:30 8.47 43700 245000 (2010) 41700 (2002) 83300 42400 46200 48100 50400 63500 112000 117000 177000 238000
2022-09-25 15:00 8.49 43800 245000 (2010) 41700 (2002) 83300 42400 46200 48100 50400 63500 112000 117000 177000 238000
2022-09-25 14:30 8.47 43700 245000 (2010) 41700 (2002) 83300 42400 46200 48100 50400 63500 112000 117000 177000 238000
2022-09-25 14:00 8.46 43600 245000 (2010) 41700 (2002) 83300 42400 46200 48100 50400 63500 112000 117000 177000 238000
2022-09-25 13:30 8.44 43500 245000 (2010) 41700 (2002) 83300 42400 46200 48100 50400 63500 112000 117000 177000 238000
2022-09-25 13:00 8.48 43700 245000 (2010) 41700 (2002) 83300 42400 46200 48100 50400 63500 112000 117000 177000 238000
2022-09-25 12:30 8.42 43400 245000 (2010) 41700 (2002) 83300 42400 46200 48100 50400 63500 112000 117000 177000 238000
2022-09-25 12:00 8.45 43600 245000 (2010) 41700 (2002) 83300 42400 46200 48100 50400 63500 112000 117000 177000 238000
2022-09-25 11:30 8.45 43600 245000 (2010) 41700 (2002) 83300 42400 46200 48100 50400 63500 112000 117000 177000 238000
2022-09-25 11:00 8.43 43500 245000 (2010) 41700 (2002) 83300 42400 46200 48100 50400 63500 112000 117000 177000 238000
2022-09-25 10:30 8.45 43600 245000 (2010) 41700 (2002) 83300 42400 46200 48100 50400 63500 112000 117000 177000 238000
2022-09-25 10:00 8.45 43600 245000 (2010) 41700 (2002) 83300 42400 46200 48100 50400 63500 112000 117000 177000 238000
2022-09-25 09:30 8.43 43500 245000 (2010) 41700 (2002) 83300 42400 46200 48100 50400 63500 112000 117000 177000 238000
2022-09-25 09:00 8.44 43500 245000 (2010) 41700 (2002) 83300 42400 46200 48100 50400 63500 112000 117000 177000 238000
2022-09-25 08:30 8.45 43600 245000 (2010) 41700 (2002) 83300 42400 46200 48100 50400 63500 112000 117000 177000 238000
2022-09-25 08:00 8.44 43500 245000 (2010) 41700 (2002) 83300 42400 46200 48100 50400 63500 112000 117000 177000 238000
2022-09-25 07:30 8.43 43500 245000 (2010) 41700 (2002) 83300 42400 46200 48100 50400 63500 112000 117000 177000 238000
2022-09-25 07:00 8.43 43500 245000 (2010) 41700 (2002) 83300 42400 46200 48100 50400 63500 112000 117000 177000 238000
2022-09-25 06:30 8.45 43600 245000 (2010) 41700 (2002) 83300 42400 46200 48100 50400 63500 112000 117000 177000 238000
2022-09-25 06:00 8.42 43400 245000 (2010) 41700 (2002) 83300 42400 46200 48100 50400 63500 112000 117000 177000 238000
2022-09-25 05:30 8.45 43600 245000 (2010) 41700 (2002) 83300 42400 46200 48100 50400 63500 112000 117000 177000 238000
2022-09-25 05:00 8.43 43500 245000 (2010) 41700 (2002) 83300 42400 46200 48100 50400 63500 112000 117000 177000 238000
2022-09-25 04:30 8.43 43500 245000 (2010) 41700 (2002) 83300 42400 46200 48100 50400 63500 112000 117000 177000 238000
2022-09-25 04:00 8.43 43500 245000 (2010) 41700 (2002) 83300 42400 46200 48100 50400 63500 112000 117000 177000 238000
2022-09-25 03:30 8.45 43600 245000 (2010) 41700 (2002) 83300 42400 46200 48100 50400 63500 112000 117000 177000 238000
2022-09-25 03:00 8.43 43500 245000 (2010) 41700 (2002) 83300 42400 46200 48100 50400 63500 112000 117000 177000 238000
2022-09-25 02:30 8.44 43500 245000 (2010) 41700 (2002) 83300 42400 46200 48100 50400 63500 112000 117000 177000 238000
2022-09-25 02:00 8.41 43400 245000 (2010) 41700 (2002) 83300 42400 46200 48100 50400 63500 112000 117000 177000 238000
2022-09-25 01:30 8.42 43400 245000 (2010) 41700 (2002) 83300 42400 46200 48100 50400 63500 112000 117000 177000 238000
2022-09-25 01:00 8.44 43500 245000 (2010) 41700 (2002) 83300 42400 46200 48100 50400 63500 112000 117000 177000 238000
2022-09-25 00:30 8.44 43500 245000 (2010) 41700 (2002) 83300 42400 46200 48100 50400 63500 112000 117000 177000 238000
2022-09-25 00:00 8.46 43600 245000 (2010) 41700 (2002) 83300 42400 46200 48100 50400 63500 112000 117000 177000 238000
2022-09-24 23:30 8.43 43500 233000 (2010) 42800 (2002) 82500 43100 45100 46400 48500 62300 115000 126000 159000 224000
2022-09-24 23:00 8.42 43400 233000 (2010) 42800 (2002) 82500 43100 45100 46400 48500 62300 115000 126000 159000 224000
2022-09-24 22:30 8.43 43500 233000 (2010) 42800 (2002) 82500 43100 45100 46400 48500 62300 115000 126000 159000 224000
2022-09-24 22:00 8.44 43500 233000 (2010) 42800 (2002) 82500 43100 45100 46400 48500 62300 115000 126000 159000 224000
2022-09-24 21:30 8.42 43400 233000 (2010) 42800 (2002) 82500 43100 45100 46400 48500 62300 115000 126000 159000 224000
2022-09-24 21:00 8.41 43400 233000 (2010) 42800 (2002) 82500 43100 45100 46400 48500 62300 115000 126000 159000 224000
2022-09-24 20:30 8.41 43400 233000 (2010) 42800 (2002) 82500 43100 45100 46400 48500 62300 115000 126000 159000 224000
2022-09-24 20:00 8.42 43400 233000 (2010) 42800 (2002) 82500 43100 45100 46400 48500 62300 115000 126000 159000 224000
2022-09-24 19:30 8.41 43400 233000 (2010) 42800 (2002) 82500 43100 45100 46400 48500 62300 115000 126000 159000 224000
2022-09-24 19:00 8.42 43400 233000 (2010) 42800 (2002) 82500 43100 45100 46400 48500 62300 115000 126000 159000 224000
2022-09-24 18:30 8.42 43400 233000 (2010) 42800 (2002) 82500 43100 45100 46400 48500 62300 115000 126000 159000 224000
2022-09-24 18:00 8.40 43300 233000 (2010) 42800 (2002) 82500 43100 45100 46400 48500 62300 115000 126000 159000 224000
2022-09-24 17:30 8.41 43400 233000 (2010) 42800 (2002) 82500 43100 45100 46400 48500 62300 115000 126000 159000 224000
2022-09-24 17:00 8.40 43300 233000 (2010) 42800 (2002) 82500 43100 45100 46400 48500 62300 115000 126000 159000 224000
2022-09-24 16:30 8.41 43400 233000 (2010) 42800 (2002) 82500 43100 45100 46400 48500 62300 115000 126000 159000 224000
2022-09-24 16:00 8.39 43300 233000 (2010) 42800 (2002) 82500 43100 45100 46400 48500 62300 115000 126000 159000 224000
2022-09-24 15:30 8.39 43300 233000 (2010) 42800 (2002) 82500 43100 45100 46400 48500 62300 115000 126000 159000 224000
2022-09-24 15:00 8.40 43300 233000 (2010) 42800 (2002) 82500 43100 45100 46400 48500 62300 115000 126000 159000 224000
2022-09-24 14:30 8.40 43300 233000 (2010) 42800 (2002) 82500 43100 45100 46400 48500 62300 115000 126000 159000 224000
2022-09-24 14:00 8.39 43300 233000 (2010) 42800 (2002) 82500 43100 45100 46400 48500 62300 115000 126000 159000 224000
2022-09-24 13:30 8.38 43200 233000 (2010) 42800 (2002) 82500 43100 45100 46400 48500 62300 115000 126000 159000 224000
2022-09-24 13:00 8.40 43300 233000 (2010) 42800 (2002) 82500 43100 45100 46400 48500 62300 115000 126000 159000 224000
2022-09-24 12:30 8.40 43300 233000 (2010) 42800 (2002) 82500 43100 45100 46400 48500 62300 115000 126000 159000 224000
2022-09-24 12:00 8.37 43200 233000 (2010) 42800 (2002) 82500 43100 45100 46400 48500 62300 115000 126000 159000 224000
2022-09-24 11:30 8.37 43200 233000 (2010) 42800 (2002) 82500 43100 45100 46400 48500 62300 115000 126000 159000 224000
2022-09-24 11:00 8.32 42900 233000 (2010) 42800 (2002) 82500 43100 45100 46400 48500 62300 115000 126000 159000 224000
2022-09-24 10:30 8.35 43100 233000 (2010) 42800 (2002) 82500 43100 45100 46400 48500 62300 115000 126000 159000 224000
2022-09-24 10:00 8.36 43100 233000 (2010) 42800 (2002) 82500 43100 45100 46400 48500 62300 115000 126000 159000 224000
2022-09-24 09:30 8.36 43100 233000 (2010) 42800 (2002) 82500 43100 45100 46400 48500 62300 115000 126000 159000 224000
2022-09-24 09:00 8.35 43100 233000 (2010) 42800 (2002) 82500 43100 45100 46400 48500 62300 115000 126000 159000 224000
2022-09-24 08:30 8.35 43100 233000 (2010) 42800 (2002) 82500 43100 45100 46400 48500 62300 115000 126000 159000 224000
2022-09-24 08:00 8.36 43100 233000 (2010) 42800 (2002) 82500 43100 45100 46400 48500 62300 115000 126000 159000 224000
2022-09-24 07:30 8.36 43100 233000 (2010) 42800 (2002) 82500 43100 45100 46400 48500 62300 115000 126000 159000 224000
2022-09-24 07:00 8.34 43000 233000 (2010) 42800 (2002) 82500 43100 45100 46400 48500 62300 115000 126000 159000 224000
2022-09-24 06:30 8.36 43100 233000 (2010) 42800 (2002) 82500 43100 45100 46400 48500 62300 115000 126000 159000 224000
2022-09-24 06:00 8.35 43100 233000 (2010) 42800 (2002) 82500 43100 45100 46400 48500 62300 115000 126000 159000 224000
2022-09-24 05:30 8.33 43000 233000 (2010) 42800 (2002) 82500 43100 45100 46400 48500 62300 115000 126000 159000 224000
2022-09-24 05:00 8.33 43000 233000 (2010) 42800 (2002) 82500 43100 45100 46400 48500 62300 115000 126000 159000 224000
2022-09-24 04:30 8.33 43000 233000 (2010) 42800 (2002) 82500 43100 45100 46400 48500 62300 115000 126000 159000 224000
2022-09-24 04:00 8.35 43100 233000 (2010) 42800 (2002) 82500 43100 45100 46400 48500 62300 115000 126000 159000 224000
2022-09-24 03:30 8.34 43000 233000 (2010) 42800 (2002) 82500 43100 45100 46400 48500 62300 115000 126000 159000 224000
2022-09-24 03:00 8.33 43000 233000 (2010) 42800 (2002) 82500 43100 45100 46400 48500 62300 115000 126000 159000 224000
2022-09-24 02:30 8.33 43000 233000 (2010) 42800 (2002) 82500 43100 45100 46400 48500 62300 115000 126000 159000 224000
2022-09-24 02:00 8.36 43100 233000 (2010) 42800 (2002) 82500 43100 45100 46400 48500 62300 115000 126000 159000 224000
2022-09-24 01:30 8.35 43100 233000 (2010) 42800 (2002) 82500 43100 45100 46400 48500 62300 115000 126000 159000 224000
2022-09-24 01:00 8.33 43000 233000 (2010) 42800 (2002) 82500 43100 45100 46400 48500 62300 115000 126000 159000 224000
2022-09-24 00:30 8.33 43000 233000 (2010) 42800 (2002) 82500 43100 45100 46400 48500 62300 115000 126000 159000 224000
2022-09-24 00:00 8.35 43100 233000 (2010) 42800 (2002) 82500 43100 45100 46400 48500 62300 115000 126000 159000 224000
2022-09-23 23:30 8.35 43100 199000 (2010) 43800 (2002) 82300 43800 44000 45500 46300 62800 117000 132000 159000 194000
2022-09-23 23:00 8.33 43000 199000 (2010) 43800 (2002) 82300 43800 44000 45500 46300 62800 117000 132000 159000 194000
2022-09-23 22:30 8.36 43100 199000 (2010) 43800 (2002) 82300 43800 44000 45500 46300 62800 117000 132000 159000 194000
2022-09-23 22:00 8.34 43000 199000 (2010) 43800 (2002) 82300 43800 44000 45500 46300 62800 117000 132000 159000 194000
2022-09-23 21:30 8.35 43100 199000 (2010) 43800 (2002) 82300 43800 44000 45500 46300 62800 117000 132000 159000 194000
2022-09-23 21:00 8.36 43100 199000 (2010) 43800 (2002) 82300 43800 44000 45500 46300 62800 117000 132000 159000 194000
2022-09-23 20:30 8.34 43000 199000 (2010) 43800 (2002) 82300 43800 44000 45500 46300 62800 117000 132000 159000 194000
2022-09-23 20:00 8.36 43100 199000 (2010) 43800 (2002) 82300 43800 44000 45500 46300 62800 117000 132000 159000 194000
2022-09-23 19:30 8.35 43100 199000 (2010) 43800 (2002) 82300 43800 44000 45500 46300 62800 117000 132000 159000 194000
2022-09-23 19:00 8.36 43100 199000 (2010) 43800 (2002) 82300 43800 44000 45500 46300 62800 117000 132000 159000 194000
2022-09-23 18:30 8.35 43100 199000 (2010) 43800 (2002) 82300 43800 44000 45500 46300 62800 117000 132000 159000 194000
2022-09-23 18:00 8.36 43100 199000 (2010) 43800 (2002) 82300 43800 44000 45500 46300 62800 117000 132000 159000 194000
2022-09-23 17:30 8.34 43000 199000 (2010) 43800 (2002) 82300 43800 44000 45500 46300 62800 117000 132000 159000 194000
2022-09-23 17:00 8.37 43200 199000 (2010) 43800 (2002) 82300 43800 44000 45500 46300 62800 117000 132000 159000 194000
2022-09-23 16:30 8.35 43100 199000 (2010) 43800 (2002) 82300 43800 44000 45500 46300 62800 117000 132000 159000 194000
2022-09-23 16:00 8.34 43000 199000 (2010) 43800 (2002) 82300 43800 44000 45500 46300 62800 117000 132000 159000 194000
2022-09-23 15:30 8.35 43100 199000 (2010) 43800 (2002) 82300 43800 44000 45500 46300 62800 117000 132000 159000 194000
2022-09-23 15:00 8.36 43100 199000 (2010) 43800 (2002) 82300 43800 44000 45500 46300 62800 117000 132000 159000 194000
2022-09-23 14:30 8.35 43100 199000 (2010) 43800 (2002) 82300 43800 44000 45500 46300 62800 117000 132000 159000 194000
2022-09-23 14:00 8.35 43100 199000 (2010) 43800 (2002) 82300 43800 44000 45500 46300 62800 117000 132000 159000 194000
2022-09-23 13:30 8.35 43100 199000 (2010) 43800 (2002) 82300 43800 44000 45500 46300 62800 117000 132000 159000 194000
2022-09-23 13:00 8.32 42900 199000 (2010) 43800 (2002) 82300 43800 44000 45500 46300 62800 117000 132000 159000 194000
2022-09-23 12:30 8.34 43000 199000 (2010) 43800 (2002) 82300 43800 44000 45500 46300 62800 117000 132000 159000 194000
2022-09-23 12:00 8.33 43000 199000 (2010) 43800 (2002) 82300 43800 44000 45500 46300 62800 117000 132000 159000 194000
2022-09-23 11:30 8.31 42900 199000 (2010) 43800 (2002) 82300 43800 44000 45500 46300 62800 117000 132000 159000 194000
2022-09-23 11:00 8.35 43100 199000 (2010) 43800 (2002) 82300 43800 44000 45500 46300 62800 117000 132000 159000 194000
2022-09-23 10:30 8.34 43000 199000 (2010) 43800 (2002) 82300 43800 44000 45500 46300 62800 117000 132000 159000 194000
2022-09-23 10:00 8.35 43100 199000 (2010) 43800 (2002) 82300 43800 44000 45500 46300 62800 117000 132000 159000 194000
2022-09-23 09:30 8.31 42900 199000 (2010) 43800 (2002) 82300 43800 44000 45500 46300 62800 117000 132000 159000 194000
2022-09-23 09:00 8.33 43000 199000 (2010) 43800 (2002) 82300 43800 44000 45500 46300 62800 117000 132000 159000 194000
2022-09-23 08:30 8.34 43000 199000 (2010) 43800 (2002) 82300 43800 44000 45500 46300 62800 117000 132000 159000 194000
2022-09-23 08:00 8.35 43100 199000 (2010) 43800 (2002) 82300 43800 44000 45500 46300 62800 117000 132000 159000 194000
2022-09-23 07:30 8.32 42900 199000 (2010) 43800 (2002) 82300 43800 44000 45500 46300 62800 117000 132000 159000 194000
2022-09-23 07:00 8.34 43000 199000 (2010) 43800 (2002) 82300 43800 44000 45500 46300 62800 117000 132000 159000 194000
2022-09-23 06:30 8.35 43100 199000 (2010) 43800 (2002) 82300 43800 44000 45500 46300 62800 117000 132000 159000 194000
2022-09-23 06:00 8.33 43000 199000 (2010) 43800 (2002) 82300 43800 44000 45500 46300 62800 117000 132000 159000 194000
2022-09-23 05:30 8.37 43200 199000 (2010) 43800 (2002) 82300 43800 44000 45500 46300 62800 117000 132000 159000 194000
2022-09-23 05:00 8.37 43200 199000 (2010) 43800 (2002) 82300 43800 44000 45500 46300 62800 117000 132000 159000 194000
2022-09-23 04:30 8.36 43100 199000 (2010) 43800 (2002) 82300 43800 44000 45500 46300 62800 117000 132000 159000 194000
2022-09-23 04:00 8.36 43100 199000 (2010) 43800 (2002) 82300 43800 44000 45500 46300 62800 117000 132000 159000 194000
2022-09-23 03:30 8.37 43200 199000 (2010) 43800 (2002) 82300 43800 44000 45500 46300 62800 117000 132000 159000 194000
2022-09-23 03:00 8.36 43100 199000 (2010) 43800 (2002) 82300 43800 44000 45500 46300 62800 117000 132000 159000 194000
2022-09-23 02:30 8.36 43100 199000 (2010) 43800 (2002) 82300 43800 44000 45500 46300 62800 117000 132000 159000 194000
2022-09-23 02:00 8.39 43300 199000 (2010) 43800 (2002) 82300 43800 44000 45500 46300 62800 117000 132000 159000 194000
2022-09-23 01:30 8.39 43300 199000 (2010) 43800 (2002) 82300 43800 44000 45500 46300 62800 117000 132000 159000 194000
2022-09-23 01:00 8.38 43200 199000 (2010) 43800 (2002) 82300 43800 44000 45500 46300 62800 117000 132000 159000 194000
2022-09-23 00:30 8.38 43200 199000 (2010) 43800 (2002) 82300 43800 44000 45500 46300 62800 117000 132000 159000 194000
2022-09-23 00:00 8.39 43300 199000 (2010) 43800 (2002) 82300 43800 44000 45500 46300 62800 117000 132000 159000 194000
2022-09-22 23:30 8.38 43200 184000 (2010) 42600 (2000) 84800 42700 43300 47100 47300 62000 121000 137000 174000 183000
2022-09-22 23:00 8.39 43300 184000 (2010) 42600 (2000) 84800 42700 43300 47100 47300 62000 121000 137000 174000 183000
2022-09-22 22:30 8.39 43300 184000 (2010) 42600 (2000) 84800 42700 43300 47100 47300 62000 121000 137000 174000 183000
2022-09-22 22:00 8.39 43300 184000 (2010) 42600 (2000) 84800 42700 43300 47100 47300 62000 121000 137000 174000 183000
2022-09-22 21:30 8.38 43200 184000 (2010) 42600 (2000) 84800 42700 43300 47100 47300 62000 121000 137000 174000 183000
2022-09-22 21:00 8.40 43300 184000 (2010) 42600 (2000) 84800 42700 43300 47100 47300 62000 121000 137000 174000 183000
2022-09-22 20:30 8.41 43400 184000 (2010) 42600 (2000) 84800 42700 43300 47100 47300 62000 121000 137000 174000 183000
2022-09-22 20:00 8.41 43400 184000 (2010) 42600 (2000) 84800 42700 43300 47100 47300 62000 121000 137000 174000 183000
2022-09-22 19:30 8.40 43300 184000 (2010) 42600 (2000) 84800 42700 43300 47100 47300 62000 121000 137000 174000 183000
2022-09-22 19:00 8.42 43400 184000 (2010) 42600 (2000) 84800 42700 43300 47100 47300 62000 121000 137000 174000 183000
2022-09-22 18:30 8.40 43300 184000 (2010) 42600 (2000) 84800 42700 43300 47100 47300 62000 121000 137000 174000 183000
2022-09-22 18:00 8.42 43400 184000 (2010) 42600 (2000) 84800 42700 43300 47100 47300 62000 121000 137000 174000 183000
2022-09-22 17:30 8.40 43300 184000 (2010) 42600 (2000) 84800 42700 43300 47100 47300 62000 121000 137000 174000 183000
2022-09-22 17:00 8.39 43300 184000 (2010) 42600 (2000) 84800 42700 43300 47100 47300 62000 121000 137000 174000 183000
2022-09-22 16:30 8.40 43300 184000 (2010) 42600 (2000) 84800 42700 43300 47100 47300 62000 121000 137000 174000 183000
2022-09-22 16:00 8.43 43500 184000 (2010) 42600 (2000) 84800 42700 43300 47100 47300 62000 121000 137000 174000 183000
2022-09-22 15:30 8.42 43400 184000 (2010) 42600 (2000) 84800 42700 43300 47100 47300 62000 121000 137000 174000 183000
2022-09-22 15:00 8.45 43600 184000 (2010) 42600 (2000) 84800 42700 43300 47100 47300 62000 121000 137000 174000 183000
2022-09-22 14:30 8.40 43300 184000 (2010) 42600 (2000) 84800 42700 43300 47100 47300 62000 121000 137000 174000 183000
2022-09-22 14:00 8.45 43600 184000 (2010) 42600 (2000) 84800 42700 43300 47100 47300 62000 121000 137000 174000 183000
2022-09-22 13:30 8.41 43400 184000 (2010) 42600 (2000) 84800 42700 43300 47100 47300 62000 121000 137000 174000 183000
2022-09-22 13:00 8.39 43300 184000 (2010) 42600 (2000) 84800 42700 43300 47100 47300 62000 121000 137000 174000 183000
2022-09-22 12:30 8.40 43300 184000 (2010) 42600 (2000) 84800 42700 43300 47100 47300 62000 121000 137000 174000 183000
2022-09-22 12:00 8.41 43400 184000 (2010) 42600 (2000) 84800 42700 43300 47100 47300 62000 121000 137000 174000 183000
2022-09-22 11:30 8.42 43400 184000 (2010) 42600 (2000) 84800 42700 43300 47100 47300 62000 121000 137000 174000 183000
2022-09-22 11:00 8.41 43400 184000 (2010) 42600 (2000) 84800 42700 43300 47100 47300 62000 121000 137000 174000 183000
2022-09-22 10:30 8.40 43300 184000 (2010) 42600 (2000) 84800 42700 43300 47100 47300 62000 121000 137000 174000 183000
2022-09-22 10:00 8.39 43300 184000 (2010) 42600 (2000) 84800 42700 43300 47100 47300 62000 121000 137000 174000 183000
2022-09-22 09:30 8.41 43400 184000 (2010) 42600 (2000) 84800 42700 43300 47100 47300 62000 121000 137000 174000 183000
2022-09-22 09:00 8.40 43300 184000 (2010) 42600 (2000) 84800 42700 43300 47100 47300 62000 121000 137000 174000 183000
2022-09-22 08:30 8.40 43300 184000 (2010) 42600 (2000) 84800 42700 43300 47100 47300 62000 121000 137000 174000 183000
2022-09-22 08:00 8.42 43400 184000 (2010) 42600 (2000) 84800 42700 43300 47100 47300 62000 121000 137000 174000 183000
2022-09-22 07:30 8.40 43300 184000 (2010) 42600 (2000) 84800 42700 43300 47100 47300 62000 121000 137000 174000 183000
2022-09-22 07:00 8.42 43400 184000 (2010) 42600 (2000) 84800 42700 43300 47100 47300 62000 121000 137000 174000 183000
2022-09-22 06:30 8.42 43400 184000 (2010) 42600 (2000) 84800 42700 43300 47100 47300 62000 121000 137000 174000 183000
2022-09-22 06:00 8.42 43400 184000 (2010) 42600 (2000) 84800 42700 43300 47100 47300 62000 121000 137000 174000 183000
2022-09-22 05:30 8.43 43500 184000 (2010) 42600 (2000) 84800 42700 43300 47100 47300 62000 121000 137000 174000 183000
2022-09-22 05:00 8.42 43400 184000 (2010) 42600 (2000) 84800 42700 43300 47100 47300 62000 121000 137000 174000 183000
2022-09-22 04:30 8.45 43600 184000 (2010) 42600 (2000) 84800 42700 43300 47100 47300 62000 121000 137000 174000 183000
2022-09-22 04:00 8.42 43400 184000 (2010) 42600 (2000) 84800 42700 43300 47100 47300 62000 121000 137000 174000 183000
2022-09-22 03:30 8.43 43500 184000 (2010) 42600 (2000) 84800 42700 43300 47100 47300 62000 121000 137000 174000 183000
2022-09-22 03:00 8.42 43400 184000 (2010) 42600 (2000) 84800 42700 43300 47100 47300 62000 121000 137000 174000 183000
2022-09-22 02:30 8.45 43600 184000 (2010) 42600 (2000) 84800 42700 43300 47100 47300 62000 121000 137000 174000 183000
2022-09-22 02:00 8.43 43500 184000 (2010) 42600 (2000) 84800 42700 43300 47100 47300 62000 121000 137000 174000 183000
2022-09-22 01:30 8.44 43500 184000 (2010) 42600 (2000) 84800 42700 43300 47100 47300 62000 121000 137000 174000 183000
2022-09-22 01:00 8.45 43600 184000 (2010) 42600 (2000) 84800 42700 43300 47100 47300 62000 121000 137000 174000 183000
2022-09-22 00:30 8.43 43500 184000 (2010) 42600 (2000) 84800 42700 43300 47100 47300 62000 121000 137000 174000 183000
2022-09-22 00:00 8.45 43600 184000 (2010) 42600 (2000) 84800 42700 43300 47100 47300 62000 121000 137000 174000 183000
2022-09-21 23:30 8.44 43500 217000 (2008) 42500 (2000) 86800 42600 43600 46500 48200 63400 122000 135000 176000 211000
2022-09-21 23:00 8.45 43600 217000 (2008) 42500 (2000) 86800 42600 43600 46500 48200 63400 122000 135000 176000 211000
2022-09-21 22:30 8.45 43600 217000 (2008) 42500 (2000) 86800 42600 43600 46500 48200 63400 122000 135000 176000 211000
2022-09-21 22:00 8.46 43600 217000 (2008) 42500 (2000) 86800 42600 43600 46500 48200 63400 122000 135000 176000 211000
2022-09-21 21:30 8.46 43600 217000 (2008) 42500 (2000) 86800 42600 43600 46500 48200 63400 122000 135000 176000 211000
2022-09-21 21:00 8.45 43600 217000 (2008) 42500 (2000) 86800 42600 43600 46500 48200 63400 122000 135000 176000 211000
2022-09-21 20:30 8.47 43700 217000 (2008) 42500 (2000) 86800 42600 43600 46500 48200 63400 122000 135000 176000 211000
2022-09-21 20:00 8.47 43700 217000 (2008) 42500 (2000) 86800 42600 43600 46500 48200 63400 122000 135000 176000 211000
2022-09-21 19:30 8.48 43700 217000 (2008) 42500 (2000) 86800 42600 43600 46500 48200 63400 122000 135000 176000 211000
2022-09-21 19:00 8.44 43500 217000 (2008) 42500 (2000) 86800 42600 43600 46500 48200 63400 122000 135000 176000 211000
2022-09-21 18:30 8.48 43700 217000 (2008) 42500 (2000) 86800 42600 43600 46500 48200 63400 122000 135000 176000 211000
2022-09-21 18:00 8.47 43700 217000 (2008) 42500 (2000) 86800 42600 43600 46500 48200 63400 122000 135000 176000 211000
2022-09-21 17:30 8.45 43600 217000 (2008) 42500 (2000) 86800 42600 43600 46500 48200 63400 122000 135000 176000 211000
2022-09-21 17:00 8.46 43600 217000 (2008) 42500 (2000) 86800 42600 43600 46500 48200 63400 122000 135000 176000 211000
2022-09-21 16:30 8.45 43600 217000 (2008) 42500 (2000) 86800 42600 43600 46500 48200 63400 122000 135000 176000 211000
2022-09-21 16:00 8.45 43600 217000 (2008) 42500 (2000) 86800 42600 43600 46500 48200 63400 122000 135000 176000 211000
2022-09-21 15:30 8.46 43600 217000 (2008) 42500 (2000) 86800 42600 43600 46500 48200 63400 122000 135000 176000 211000
2022-09-21 15:00 8.45 43600 217000 (2008) 42500 (2000) 86800 42600 43600 46500 48200 63400 122000 135000 176000 211000
2022-09-21 14:30 8.48 43700 217000 (2008) 42500 (2000) 86800 42600 43600 46500 48200 63400 122000 135000 176000 211000
2022-09-21 14:00 8.47 43700 217000 (2008) 42500 (2000) 86800 42600 43600 46500 48200 63400 122000 135000 176000 211000
2022-09-21 13:30 8.46 43600 217000 (2008) 42500 (2000) 86800 42600 43600 46500 48200 63400 122000 135000 176000 211000
2022-09-21 13:00 8.46 43600 217000 (2008) 42500 (2000) 86800 42600 43600 46500 48200 63400 122000 135000 176000 211000
2022-09-21 12:30 8.44 43500 217000 (2008) 42500 (2000) 86800 42600 43600 46500 48200 63400 122000 135000 176000 211000
2022-09-21 12:00 8.45 43600 217000 (2008) 42500 (2000) 86800 42600 43600 46500 48200 63400 122000 135000 176000 211000
2022-09-21 11:30 8.47 43700 217000 (2008) 42500 (2000) 86800 42600 43600 46500 48200 63400 122000 135000 176000 211000
2022-09-21 11:00 8.47 43700 217000 (2008) 42500 (2000) 86800 42600 43600 46500 48200 63400 122000 135000 176000 211000
2022-09-21 10:30 8.44 43500 217000 (2008) 42500 (2000) 86800 42600 43600 46500 48200 63400 122000 135000 176000 211000
2022-09-21 10:00 8.46 43600 217000 (2008) 42500 (2000) 86800 42600 43600 46500 48200 63400 122000 135000 176000 211000
2022-09-21 09:30 8.45 43600 217000 (2008) 42500 (2000) 86800 42600 43600 46500 48200 63400 122000 135000 176000 211000
2022-09-21 09:00 8.46 43600 217000 (2008) 42500 (2000) 86800 42600 43600 46500 48200 63400 122000 135000 176000 211000
2022-09-21 08:30 8.45 43600 217000 (2008) 42500 (2000) 86800 42600 43600 46500 48200 63400 122000 135000 176000 211000
2022-09-21 08:00 8.47 43700 217000 (2008) 42500 (2000) 86800 42600 43600 46500 48200 63400 122000 135000 176000 211000
2022-09-21 07:30 8.48 43700 217000 (2008) 42500 (2000) 86800 42600 43600 46500 48200 63400 122000 135000 176000 211000
2022-09-21 07:00 8.50 43900 217000 (2008) 42500 (2000) 86800 42600 43600 46500 48200 63400 122000 135000 176000 211000
2022-09-21 06:30 8.49 43800 217000 (2008) 42500 (2000) 86800 42600 43600 46500 48200 63400 122000 135000 176000 211000
2022-09-21 06:00 8.46 43600 217000 (2008) 42500 (2000) 86800 42600 43600 46500 48200 63400 122000 135000 176000 211000
2022-09-21 05:30 8.49 43800 217000 (2008) 42500 (2000) 86800 42600 43600 46500 48200 63400 122000 135000 176000 211000
2022-09-21 05:00 8.47 43700 217000 (2008) 42500 (2000) 86800 42600 43600 46500 48200 63400 122000 135000 176000 211000
2022-09-21 04:30 8.49 43800 217000 (2008) 42500 (2000) 86800 42600 43600 46500 48200 63400 122000 135000 176000 211000
2022-09-21 04:00 8.49 43800 217000 (2008) 42500 (2000) 86800 42600 43600 46500 48200 63400 122000 135000 176000 211000
2022-09-21 03:30 8.49 43800 217000 (2008) 42500 (2000) 86800 42600 43600 46500 48200 63400 122000 135000 176000 211000
2022-09-21 03:00 8.49 43800 217000 (2008) 42500 (2000) 86800 42600 43600 46500 48200 63400 122000 135000 176000 211000
2022-09-21 02:30 8.48 43700 217000 (2008) 42500 (2000) 86800 42600 43600 46500 48200 63400 122000 135000 176000 211000
2022-09-21 02:00 8.48 43700 217000 (2008) 42500 (2000) 86800 42600 43600 46500 48200 63400 122000 135000 176000 211000
2022-09-21 01:30 8.51 43900 217000 (2008) 42500 (2000) 86800 42600 43600 46500 48200 63400 122000 135000 176000 211000
2022-09-21 01:00 8.51 43900 217000 (2008) 42500 (2000) 86800 42600 43600 46500 48200 63400 122000 135000 176000 211000
2022-09-21 00:30 8.51 43900 217000 (2008) 42500 (2000) 86800 42600 43600 46500 48200 63400 122000 135000 176000 211000
2022-09-21 00:00 8.51 43900 217000 (2008) 42500 (2000) 86800 42600 43600 46500 48200 63400 122000 135000 176000 211000
2022-09-20 23:30 8.51 43900 282000 (2008) 42500 (2000) 87200 42700 44100 46100 47700 57300 124000 131000 179000 267000
2022-09-20 23:00 8.52 44000 282000 (2008) 42500 (2000) 87200 42700 44100 46100 47700 57300 124000 131000 179000 267000
2022-09-20 22:30 8.53 44000 282000 (2008) 42500 (2000) 87200 42700 44100 46100 47700 57300 124000 131000 179000 267000
2022-09-20 22:00 8.51 43900 282000 (2008) 42500 (2000) 87200 42700 44100 46100 47700 57300 124000 131000 179000 267000
2022-09-20 21:30 8.52 44000 282000 (2008) 42500 (2000) 87200 42700 44100 46100 47700 57300 124000 131000 179000 267000
2022-09-20 21:00 8.51 43900 282000 (2008) 42500 (2000) 87200 42700 44100 46100 47700 57300 124000 131000 179000 267000
2022-09-20 20:30 8.55 44100 282000 (2008) 42500 (2000) 87200 42700 44100 46100 47700 57300 124000 131000 179000 267000
2022-09-20 20:00 8.53 44000 282000 (2008) 42500 (2000) 87200 42700 44100 46100 47700 57300 124000 131000 179000 267000
2022-09-20 19:30 8.52 44000 282000 (2008) 42500 (2000) 87200 42700 44100 46100 47700 57300 124000 131000 179000 267000
2022-09-20 19:00 8.51 43900 282000 (2008) 42500 (2000) 87200 42700 44100 46100 47700 57300 124000 131000 179000 267000
2022-09-20 18:30 8.53 44000 282000 (2008) 42500 (2000) 87200 42700 44100 46100 47700 57300 124000 131000 179000 267000
2022-09-20 18:00 8.52 44000 282000 (2008) 42500 (2000) 87200 42700 44100 46100 47700 57300 124000 131000 179000 267000
2022-09-20 17:30 8.52 44000 282000 (2008) 42500 (2000) 87200 42700 44100 46100 47700 57300 124000 131000 179000 267000
2022-09-20 17:00 8.53 44000 282000 (2008) 42500 (2000) 87200 42700 44100 46100 47700 57300 124000 131000 179000 267000
2022-09-20 16:30 8.52 44000 282000 (2008) 42500 (2000) 87200 42700 44100 46100 47700 57300 124000 131000 179000 267000
2022-09-20 16:00 8.52 44000 282000 (2008) 42500 (2000) 87200 42700 44100 46100 47700 57300 124000 131000 179000 267000
2022-09-20 15:30 8.51 43900 282000 (2008) 42500 (2000) 87200 42700 44100 46100 47700 57300 124000 131000 179000 267000
2022-09-20 15:00 8.51 43900 282000 (2008) 42500 (2000) 87200 42700 44100 46100 47700 57300 124000 131000 179000 267000
2022-09-20 14:30 8.50 43900 282000 (2008) 42500 (2000) 87200 42700 44100 46100 47700 57300 124000 131000 179000 267000
2022-09-20 14:00 8.52 44000 282000 (2008) 42500 (2000) 87200 42700 44100 46100 47700 57300 124000 131000 179000 267000
2022-09-20 13:30 8.53 44000 282000 (2008) 42500 (2000) 87200 42700 44100 46100 47700 57300 124000 131000 179000 267000
2022-09-20 13:00 8.51 43900 282000 (2008) 42500 (2000) 87200 42700 44100 46100 47700 57300 124000 131000 179000 267000
2022-09-20 12:30 8.51 43900 282000 (2008) 42500 (2000) 87200 42700 44100 46100 47700 57300 124000 131000 179000 267000
2022-09-20 12:00 8.51 43900 282000 (2008) 42500 (2000) 87200 42700 44100 46100 47700 57300 124000 131000 179000 267000
2022-09-20 11:30 8.49 43800 282000 (2008) 42500 (2000) 87200 42700 44100 46100 47700 57300 124000 131000 179000 267000
2022-09-20 11:00 8.51 43900 282000 (2008) 42500 (2000) 87200 42700 44100 46100 47700 57300 124000 131000 179000 267000
2022-09-20 10:30 8.52 44000 282000 (2008) 42500 (2000) 87200 42700 44100 46100 47700 57300 124000 131000 179000 267000
2022-09-20 10:00 8.49 43800 282000 (2008) 42500 (2000) 87200 42700 44100 46100 47700 57300 124000 131000 179000 267000
2022-09-20 09:30 8.50 43900 282000 (2008) 42500 (2000) 87200 42700 44100 46100 47700 57300 124000 131000 179000 267000
2022-09-20 09:00 8.49 43800 282000 (2008) 42500 (2000) 87200 42700 44100 46100 47700 57300 124000 131000 179000 267000
2022-09-20 08:30 8.49 43800 282000 (2008) 42500 (2000) 87200 42700 44100 46100 47700 57300 124000 131000 179000 267000
2022-09-20 08:00 8.53 44000 282000 (2008) 42500 (2000) 87200 42700 44100 46100 47700 57300 124000 131000 179000 267000
2022-09-20 07:30 8.51 43900 282000 (2008) 42500 (2000) 87200 42700 44100 46100 47700 57300 124000 131000 179000 267000
2022-09-20 07:00 8.52 44000 282000 (2008) 42500 (2000) 87200 42700 44100 46100 47700 57300 124000 131000 179000 267000
2022-09-20 06:30 8.53 44000 282000 (2008) 42500 (2000) 87200 42700 44100 46100 47700 57300 124000 131000 179000 267000
2022-09-20 06:00 8.52 44000 282000 (2008) 42500 (2000) 87200 42700 44100 46100 47700 57300 124000 131000 179000 267000
2022-09-20 05:30 8.51 43900 282000 (2008) 42500 (2000) 87200 42700 44100 46100 47700 57300 124000 131000 179000 267000
2022-09-20 05:00 8.51 43900 282000 (2008) 42500 (2000) 87200 42700 44100 46100 47700 57300 124000 131000 179000 267000
2022-09-20 04:30 8.53 44000 282000 (2008) 42500 (2000) 87200 42700 44100 46100 47700 57300 124000 131000 179000 267000
2022-09-20 04:00 8.53 44000 282000 (2008) 42500 (2000) 87200 42700 44100 46100 47700 57300 124000 131000 179000 267000
2022-09-20 03:30 8.56 44200 282000 (2008) 42500 (2000) 87200 42700 44100 46100 47700 57300 124000 131000 179000 267000
2022-09-20 03:00 8.53 44000 282000 (2008) 42500 (2000) 87200 42700 44100 46100 47700 57300 124000 131000 179000 267000
2022-09-20 02:30 8.53 44000 282000 (2008) 42500 (2000) 87200 42700 44100 46100 47700 57300 124000 131000 179000 267000
2022-09-20 02:00 8.53 44000 282000 (2008) 42500 (2000) 87200 42700 44100 46100 47700 57300 124000 131000 179000 267000
2022-09-20 01:30 8.54 44100 282000 (2008) 42500 (2000) 87200 42700 44100 46100 47700 57300 124000 131000 179000 267000
2022-09-20 01:00 8.53 44000 282000 (2008) 42500 (2000) 87200 42700 44100 46100 47700 57300 124000 131000 179000 267000
2022-09-20 00:30 8.55 44100 282000 (2008) 42500 (2000) 87200 42700 44100 46100 47700 57300 124000 131000 179000 267000
2022-09-20 00:00 8.53 44000 282000 (2008) 42500 (2000) 87200 42700 44100 46100 47700 57300 124000 131000 179000 267000
2022-09-19 23:30 8.55 44100 320000 (2008) 42600 (2000) 89500 42600 42800 46200 48000 54800 132000 140000 166000 297000
2022-09-19 23:00 8.55 44100 320000 (2008) 42600 (2000) 89500 42600 42800 46200 48000 54800 132000 140000 166000 297000
2022-09-19 22:30 8.56 44200 320000 (2008) 42600 (2000) 89500 42600 42800 46200 48000 54800 132000 140000 166000 297000
2022-09-19 22:00 8.54 44100 320000 (2008) 42600 (2000) 89500 42600 42800 46200 48000 54800 132000 140000 166000 297000
2022-09-19 21:30 8.53 44000 320000 (2008) 42600 (2000) 89500 42600 42800 46200 48000 54800 132000 140000 166000 297000
2022-09-19 21:00 8.55 44100 320000 (2008) 42600 (2000) 89500 42600 42800 46200 48000 54800 132000 140000 166000 297000
2022-09-19 20:30 8.56 44200 320000 (2008) 42600 (2000) 89500 42600 42800 46200 48000 54800 132000 140000 166000 297000
2022-09-19 20:00 8.56 44200 320000 (2008) 42600 (2000) 89500 42600 42800 46200 48000 54800 132000 140000 166000 297000
2022-09-19 19:30 8.57 44200 320000 (2008) 42600 (2000) 89500 42600 42800 46200 48000 54800 132000 140000 166000 297000
2022-09-19 19:00 8.56 44200 320000 (2008) 42600 (2000) 89500 42600 42800 46200 48000 54800 132000 140000 166000 297000
2022-09-19 18:30 8.55 44100 320000 (2008) 42600 (2000) 89500 42600 42800 46200 48000 54800 132000 140000 166000 297000
2022-09-19 18:00 8.55 44100 320000 (2008) 42600 (2000) 89500 42600 42800 46200 48000 54800 132000 140000 166000 297000
2022-09-19 17:30 8.54 44100 320000 (2008) 42600 (2000) 89500 42600 42800 46200 48000 54800 132000 140000 166000 297000
2022-09-19 17:00 8.55 44100 320000 (2008) 42600 (2000) 89500 42600 42800 46200 48000 54800 132000 140000 166000 297000
2022-09-19 16:30 8.55 44100 320000 (2008) 42600 (2000) 89500 42600 42800 46200 48000 54800 132000 140000 166000 297000
2022-09-19 16:00 8.54 44100 320000 (2008) 42600 (2000) 89500 42600 42800 46200 48000 54800 132000 140000 166000 297000
2022-09-19 15:30 8.54 44100 320000 (2008) 42600 (2000) 89500 42600 42800 46200 48000 54800 132000 140000 166000 297000
2022-09-19 15:00 8.54 44100 320000 (2008) 42600 (2000) 89500 42600 42800 46200 48000 54800 132000 140000 166000 297000
2022-09-19 14:30 8.55 44100 320000 (2008) 42600 (2000) 89500 42600 42800 46200 48000 54800 132000 140000 166000 297000
2022-09-19 14:00 8.53 44000 320000 (2008) 42600 (2000) 89500 42600 42800 46200 48000 54800 132000 140000 166000 297000
2022-09-19 13:30 8.52 44000 320000 (2008) 42600 (2000) 89500 42600 42800 46200 48000 54800 132000 140000 166000 297000
2022-09-19 13:00 8.53 44000 320000 (2008) 42600 (2000) 89500 42600 42800 46200 48000 54800 132000 140000 166000 297000
2022-09-19 12:30 8.55 44100 320000 (2008) 42600 (2000) 89500 42600 42800 46200 48000 54800 132000 140000 166000 297000
2022-09-19 12:00 8.57 44200 320000 (2008) 42600 (2000) 89500 42600 42800 46200 48000 54800 132000 140000 166000 297000
2022-09-19 11:30 8.53 44000 320000 (2008) 42600 (2000) 89500 42600 42800 46200 48000 54800 132000 140000 166000 297000
2022-09-19 11:00 8.50 43900 320000 (2008) 42600 (2000) 89500 42600 42800 46200 48000 54800 132000 140000 166000 297000
2022-09-19 10:30 8.53 44000 320000 (2008) 42600 (2000) 89500 42600 42800 46200 48000 54800 132000 140000 166000 297000
2022-09-19 10:00 8.52 44000 320000 (2008) 42600 (2000) 89500 42600 42800 46200 48000 54800 132000 140000 166000 297000
2022-09-19 09:30 8.51 43900 320000 (2008) 42600 (2000) 89500 42600 42800 46200 48000 54800 132000 140000 166000 297000
2022-09-19 09:00 8.50 43900 320000 (2008) 42600 (2000) 89500 42600 42800 46200 48000 54800 132000 140000 166000 297000
2022-09-19 08:30 8.52 44000 320000 (2008) 42600 (2000) 89500 42600 42800 46200 48000 54800 132000 140000 166000 297000
2022-09-19 08:00 8.50 43900 320000 (2008) 42600 (2000) 89500 42600 42800 46200 48000 54800 132000 140000 166000 297000
2022-09-19 07:30 8.52 44000 320000 (2008) 42600 (2000) 89500 42600 42800 46200 48000 54800 132000 140000 166000 297000
2022-09-19 07:00 8.52 44000 320000 (2008) 42600 (2000) 89500 42600 42800 46200 48000 54800 132000 140000 166000 297000
2022-09-19 06:30 8.53 44000 320000 (2008) 42600 (2000) 89500 42600 42800 46200 48000 54800 132000 140000 166000 297000
2022-09-19 06:00 8.50 43900 320000 (2008) 42600 (2000) 89500 42600 42800 46200 48000 54800 132000 140000 166000 297000
2022-09-19 05:30 8.50 43900 320000 (2008) 42600 (2000) 89500 42600 42800 46200 48000 54800 132000 140000 166000 297000
2022-09-19 05:00 8.51 43900 320000 (2008) 42600 (2000) 89500 42600 42800 46200 48000 54800 132000 140000 166000 297000
2022-09-19 04:30 8.51 43900 320000 (2008) 42600 (2000) 89500 42600 42800 46200 48000 54800 132000 140000 166000 297000
2022-09-19 04:00 8.50 43900 320000 (2008) 42600 (2000) 89500 42600 42800 46200 48000 54800 132000 140000 166000 297000
2022-09-19 03:30 8.53 44000 320000 (2008) 42600 (2000) 89500 42600 42800 46200 48000 54800 132000 140000 166000 297000
2022-09-19 03:00 8.52 44000 320000 (2008) 42600 (2000) 89500 42600 42800 46200 48000 54800 132000 140000 166000 297000
2022-09-19 02:30 8.51 43900 320000 (2008) 42600 (2000) 89500 42600 42800 46200 48000 54800 132000 140000 166000 297000
2022-09-19 02:00 8.51 43900 320000 (2008) 42600 (2000) 89500 42600 42800 46200 48000 54800 132000 140000 166000 297000
2022-09-19 01:30 8.51 43900 320000 (2008) 42600 (2000) 89500 42600 42800 46200 48000 54800 132000 140000 166000 297000
2022-09-19 01:00 8.51 43900 320000 (2008) 42600 (2000) 89500 42600 42800 46200 48000 54800 132000 140000 166000 297000
2022-09-19 00:30 8.51 43900 320000 (2008) 42600 (2000) 89500 42600 42800 46200 48000 54800 132000 140000 166000 297000
2022-09-19 00:00 8.52 44000 320000 (2008) 42600 (2000) 89500 42600 42800 46200 48000 54800 132000 140000 166000 297000
2022-09-18 23:30 8.50 43900 338000 (2008) 41300 (2002) 91600 41600 43500 46300 47600 56200 133000 142000 182000 316000
2022-09-18 23:00 8.53 44000 338000 (2008) 41300 (2002) 91600 41600 43500 46300 47600 56200 133000 142000 182000 316000
2022-09-18 22:30 8.51 43900 338000 (2008) 41300 (2002) 91600 41600 43500 46300 47600 56200 133000 142000 182000 316000
2022-09-18 22:00 8.53 44000 338000 (2008) 41300 (2002) 91600 41600 43500 46300 47600 56200 133000 142000 182000 316000
2022-09-18 21:30 8.51 43900 338000 (2008) 41300 (2002) 91600 41600 43500 46300 47600 56200 133000 142000 182000 316000
2022-09-18 21:00 8.52 44000 338000 (2008) 41300 (2002) 91600 41600 43500 46300 47600 56200 133000 142000 182000 316000
2022-09-18 20:30 8.50 43900 338000 (2008) 41300 (2002) 91600 41600 43500 46300 47600 56200 133000 142000 182000 316000
2022-09-18 20:00 8.52 44000 338000 (2008) 41300 (2002) 91600 41600 43500 46300 47600 56200 133000 142000 182000 316000
2022-09-18 19:30 8.51 43900 338000 (2008) 41300 (2002) 91600 41600 43500 46300 47600 56200 133000 142000 182000 316000
2022-09-18 19:00 8.50 43900 338000 (2008) 41300 (2002) 91600 41600 43500 46300 47600 56200 133000 142000 182000 316000
2022-09-18 18:30 8.52 44000 338000 (2008) 41300 (2002) 91600 41600 43500 46300 47600 56200 133000 142000 182000 316000
2022-09-18 18:00 8.52 44000 338000 (2008) 41300 (2002) 91600 41600 43500 46300 47600 56200 133000 142000 182000 316000
2022-09-18 17:30 8.52 44000 338000 (2008) 41300 (2002) 91600 41600 43500 46300 47600 56200 133000 142000 182000 316000
2022-09-18 17:00 8.51 43900 338000 (2008) 41300 (2002) 91600 41600 43500 46300 47600 56200 133000 142000 182000 316000
2022-09-18 16:30 8.49 43800 338000 (2008) 41300 (2002) 91600 41600 43500 46300 47600 56200 133000 142000 182000 316000
2022-09-18 16:00 8.51 43900 338000 (2008) 41300 (2002) 91600 41600 43500 46300 47600 56200 133000 142000 182000 316000
2022-09-18 15:30 8.49 43800 338000 (2008) 41300 (2002) 91600 41600 43500 46300 47600 56200 133000 142000 182000 316000
2022-09-18 15:00 8.50 43900 338000 (2008) 41300 (2002) 91600 41600 43500 46300 47600 56200 133000 142000 182000 316000
2022-09-18 14:30 8.50 43900 338000 (2008) 41300 (2002) 91600 41600 43500 46300 47600 56200 133000 142000 182000 316000
2022-09-18 14:00 8.49 43800 338000 (2008) 41300 (2002) 91600 41600 43500 46300 47600 56200 133000 142000 182000 316000
2022-09-18 13:30 8.49 43800 338000 (2008) 41300 (2002) 91600 41600 43500 46300 47600 56200 133000 142000 182000 316000
2022-09-18 13:00 8.49 43800 338000 (2008) 41300 (2002) 91600 41600 43500 46300 47600 56200 133000 142000 182000 316000
2022-09-18 12:30 8.47 43700 338000 (2008) 41300 (2002) 91600 41600 43500 46300 47600 56200 133000 142000 182000 316000
2022-09-18 12:00 8.47 43700 338000 (2008) 41300 (2002) 91600 41600 43500 46300 47600 56200 133000 142000 182000 316000
2022-09-18 11:30 8.47 43700 338000 (2008) 41300 (2002) 91600 41600 43500 46300 47600 56200 133000 142000 182000 316000
2022-09-18 11:00 8.48 43700 338000 (2008) 41300 (2002) 91600 41600 43500 46300 47600 56200 133000 142000 182000 316000
2022-09-18 10:30 8.50 43900 338000 (2008) 41300 (2002) 91600 41600 43500 46300 47600 56200 133000 142000 182000 316000
2022-09-18 10:00 8.48 43700 338000 (2008) 41300 (2002) 91600 41600 43500 46300 47600 56200 133000 142000 182000 316000
2022-09-18 09:30 8.47 43700 338000 (2008) 41300 (2002) 91600 41600 43500 46300 47600 56200 133000 142000 182000 316000
2022-09-18 09:00 8.46 43600 338000 (2008) 41300 (2002) 91600 41600 43500 46300 47600 56200 133000 142000 182000 316000
2022-09-18 08:30 8.46 43600 338000 (2008) 41300 (2002) 91600 41600 43500 46300 47600 56200 133000 142000 182000 316000
2022-09-18 08:00 8.44 43500 338000 (2008) 41300 (2002) 91600 41600 43500 46300 47600 56200 133000 142000 182000 316000
2022-09-18 07:30 8.46 43600 338000 (2008) 41300 (2002) 91600 41600 43500 46300 47600 56200 133000 142000 182000 316000
2022-09-18 07:00 8.45 43600 338000 (2008) 41300 (2002) 91600 41600 43500 46300 47600 56200 133000 142000 182000 316000
2022-09-18 06:30 8.45 43600 338000 (2008) 41300 (2002) 91600 41600 43500 46300 47600 56200 133000 142000 182000 316000
2022-09-18 06:00 8.46 43600 338000 (2008) 41300 (2002) 91600 41600 43500 46300 47600 56200 133000 142000 182000 316000
2022-09-18 05:30 8.45 43600 338000 (2008) 41300 (2002) 91600 41600 43500 46300 47600 56200 133000 142000 182000 316000
2022-09-18 05:00 8.45 43600 338000 (2008) 41300 (2002) 91600 41600 43500 46300 47600 56200 133000 142000 182000 316000
2022-09-18 04:30 8.46 43600 338000 (2008) 41300 (2002) 91600 41600 43500 46300 47600 56200 133000 142000 182000 316000
2022-09-18 04:00 8.46 43600 338000 (2008) 41300 (2002) 91600 41600 43500 46300 47600 56200 133000 142000 182000 316000
2022-09-18 03:30 8.45 43600 338000 (2008) 41300 (2002) 91600 41600 43500 46300 47600 56200 133000 142000 182000 316000
2022-09-18 03:00 8.45 43600 338000 (2008) 41300 (2002) 91600 41600 43500 46300 47600 56200 133000 142000 182000 316000
2022-09-18 02:30 8.44 43500 338000 (2008) 41300 (2002) 91600 41600 43500 46300 47600 56200 133000 142000 182000 316000
2022-09-18 02:00 8.45 43600 338000 (2008) 41300 (2002) 91600 41600 43500 46300 47600 56200 133000 142000 182000 316000
2022-09-18 01:30 8.44 43500 338000 (2008) 41300 (2002) 91600 41600 43500 46300 47600 56200 133000 142000 182000 316000
2022-09-18 01:00 8.44 43500 338000 (2008) 41300 (2002) 91600 41600 43500 46300 47600 56200 133000 142000 182000 316000
2022-09-18 00:30 8.45 43600 338000 (2008) 41300 (2002) 91600 41600 43500 46300 47600 56200 133000 142000 182000 316000
2022-09-18 00:00 8.44 43500 338000 (2008) 41300 (2002) 91600 41600 43500 46300 47600 56200 133000 142000 182000 316000

A total of 380 rows are displayed for years 2000 through 2021.